Main page
METAR-TAF:

METAR-TAF

Airports :

Yellowstone Lake, Wyoming, United States

latitude: 44-32-40N, longitude: 110-25-16W, elevation: 7833 ft

Current weather observation

The report was made 55 minutes ago, at 18:56 UTC
Wind 9 mph from the West/Southwest with gusts up to 22 mph, varying between South/Southwest and West/Northwest
Temperature 61°F
Humidity 29%
Pressure 30.03 in. Hg

METAR: KP60 161856Z AUTO 25008G19KT 210V290 16/M02 A3003 RMK AO1 SLP100 T01561017

Time: 13:51 (19:51 UTC)


TAF: missing

Weather observations and forecasts of more than 4000 airports (METAR and TAF reports).

The available stations are represented by yellow and red dots on the map.

Hover mouse over dot to see the name of the station.

Then click to see weather observations and forecasts.

To change the map : click on the green buttons with a black cross to zoom in, on the green button with a dash to zoom out, or on the green arrows for adjacent maps.


METAR-TAF: